Time;durP1;ratioP1;P1;durP2;ratioP2;P2;SDS_P1;SDS_P2;PMS_P1;PMS_P2;Temp;Humidity;BMP_temperature;BMP_pressure;BME280_temperature;BME280_humidity;BME280_pressure;Samples;Min_cycle;Max_cycle;Signal;HPM_P1;HPM_P2
2022/12/30 00:00:38;;;;;;;51.03;23.35;;;;;;;1.62;100.00;97800.50;5002888;28;20115;-61
2022/12/30 00:03:05;;;;;;;39.95;19.58;;;;;;;1.41;100.00;97757.13;5005477;28;20046;-55
2022/12/30 00:05:32;;;;;;;30.05;15.40;;;;;;;1.85;100.00;97843.34;5023767;28;20057;-55
2022/12/30 00:07:58;;;;;;;50.30;26.77;;;;;;;1.26;100.00;97779.19;5022842;28;20548;-61
2022/12/30 00:10:25;;;;;;;34.53;18.05;;;;;;;1.79;100.00;97841.81;5023265;28;20046;-55
2022/12/30 00:35:21;;;;;;;35.58;16.25;;;;;;;1.52;100.00;97848.69;5004379;28;20472;-54
2022/12/30 00:37:47;;;;;;;31.90;15.32;;;;;;;1.59;100.00;97845.59;5002694;28;20053;-55
2022/12/30 00:40:17;;;;;;;35.00;17.02;;;;;;;1.48;100.00;97835.94;5018528;28;20443;-61
2022/12/30 00:45:30;;;;;;;35.95;17.25;;;;;;;1.62;100.00;97855.13;5003927;28;20456;-61
2022/12/30 00:47:57;;;;;;;28.70;15.27;;;;;;;1.68;100.00;97859.41;5002792;28;20145;-55
2022/12/30 00:56:12;;;;;;;32.75;15.15;;;;;;;1.42;100.00;97829.69;5003462;28;20092;-61
2022/12/30 00:58:39;;;;;;;36.05;17.38;;;;;;;1.53;100.00;97863.97;5004119;28;20057;-61
2022/12/30 01:01:05;;;;;;;34.13;16.08;;;;;;;1.46;100.00;97854.50;5003659;28;20635;-54
2022/12/30 01:03:32;;;;;;;38.67;18.33;;;;;;;1.55;100.00;97861.75;5004351;28;20224;-62
2022/12/30 01:06:05;;;;;;;43.20;19.25;;;;;;;1.63;100.00;97859.50;5003724;28;20085;-55
2022/12/30 01:08:32;;;;;;;41.47;19.80;;;;;;;1.15;100.00;97780.41;5002330;28;20057;-55
2022/12/30 01:10:59;;;;;;;41.50;19.13;;;;;;;1.04;100.00;97800.72;5002153;28;20100;-62
2022/12/30 01:13:25;;;;;;;38.67;18.33;;;;;;;1.48;100.00;97838.66;5003874;28;20480;-61
2022/12/30 01:15:52;;;;;;;37.42;17.77;;;;;;;1.54;100.00;97849.22;5002840;28;20100;-55
2022/12/30 01:18:19;;;;;;;35.83;17.48;;;;;;;1.50;100.00;97853.63;5003974;28;20146;-56
2022/12/30 01:20:45;;;;;;;34.35;17.73;;;;;;;1.32;100.00;97818.94;5003615;28;20116;-60
2022/12/30 01:23:12;;;;;;;36.60;17.52;;;;;;;1.53;100.00;97833.94;5006462;28;20049;-55
2022/12/30 01:25:40;;;;;;;37.15;18.67;;;;;;;1.46;100.00;97825.31;5022086;28;20054;-55
2022/12/30 01:28:06;;;;;;;39.50;16.67;;;;;;;1.17;100.00;97789.09;5007434;28;20054;-61
2022/12/30 01:30:33;;;;;;;42.45;19.15;;;;;;;1.56;100.00;97833.34;5012063;28;20128;-61
2022/12/30 01:32:59;;;;;;;33.85;16.95;;;;;;;1.62;100.00;97849.66;5025781;28;20049;-55
2022/12/30 01:35:27;;;;;;;34.70;16.77;;;;;;;1.41;100.00;97808.97;5026694;28;20119;-55
2022/12/30 01:37:53;;;;;;;32.30;16.00;;;;;;;1.49;100.00;97843.81;5027204;28;20127;-54
2022/12/30 01:40:20;;;;;;;33.90;16.02;;;;;;;0.90;100.00;97745.25;5026583;28;20115;-61
2022/12/30 01:42:46;;;;;;;38.30;18.05;;;;;;;1.33;100.00;97839.66;5026399;28;20520;-54
2022/12/30 01:45:17;;;;;;;45.30;20.60;;;;;;;0.68;100.00;97829.47;5026271;28;20050;-56
2022/12/30 01:47:53;;;;;;;47.05;22.13;;;;;;;0.71;100.00;97828.88;5026891;28;20053;-56
2022/12/30 01:50:51;;;;;;;51.50;23.30;;;;;;;0.80;100.00;97820.91;5026541;28;20061;-61
2022/12/30 01:53:41;;;;;;;57.05;21.88;;;;;;;0.94;100.00;97817.22;5025895;28;20049;-61
2022/12/30 01:56:40;;;;;;;54.53;22.27;;;;;;;0.90;100.00;97837.16;5026120;28;20053;-62
2022/12/30 01:59:15;;;;;;;38.15;19.33;;;;;;;0.31;100.00;97714.88;5026244;28;20550;-55
2022/12/30 02:01:44;;;;;;;38.95;18.83;;;;;;;0.97;100.00;97819.34;5026314;28;20093;-56
2022/12/30 02:04:18;;;;;;;41.83;20.10;;;;;;;1.01;100.00;97814.94;5023398;28;20498;-55
2022/12/30 02:07:08;;;;;;;38.22;18.60;;;;;;;1.12;100.00;97816.44;5024985;28;20400;-62
2022/12/30 02:09:36;;;;;;;53.05;22.45;;;;;;;1.23;100.00;97831.56;5024940;28;20535;-55
2022/12/30 02:12:05;;;;;;;47.97;22.10;;;;;;;1.00;100.00;97798.84;5026589;28;20054;-55
2022/12/30 02:14:36;;;;;;;42.70;21.88;;;;;;;1.17;100.00;97805.47;5025763;28;20460;-55
2022/12/30 02:17:08;;;;;;;46.42;22.50;;;;;;;1.15;100.00;97807.69;5026044;28;20104;-56
2022/12/30 02:19:57;;;;;;;38.17;20.20;;;;;;;1.18;100.00;97823.47;5025763;28;20459;-61
2022/12/30 02:22:57;;;;;;;31.35;16.48;;;;;;;1.16;100.00;97809.31;5026198;28;20053;-62
2022/12/30 02:25:54;;;;;;;29.95;14.75;;;;;;;1.17;100.00;97810.91;5025700;28;20053;-55
2022/12/30 02:28:35;;;;;;;31.90;15.65;;;;;;;1.07;100.00;97816.53;5026378;28;20229;-62
2022/12/30 02:31:37;;;;;;;49.67;22.52;;;;;;;1.00;100.00;97813.31;5015565;28;20053;-56
2022/12/30 02:34:31;;;;;;;43.75;20.48;;;;;;;1.06;100.00;97803.16;5005044;28;20061;-62
2022/12/30 02:37:19;;;;;;;48.00;22.65;;;;;;;1.01;100.00;97801.28;5006171;28;20053;-55
2022/12/30 02:39:56;;;;;;;59.60;26.65;;;;;;;1.01;100.00;97817.66;5005940;28;20144;-60
2022/12/30 02:45:46;;;;;;;50.83;22.83;;;;;;;0.58;100.00;97736.91;5006034;28;20490;-62
2022/12/30 02:48:15;;;;;;;50.47;23.88;;;;;;;0.57;100.00;97751.63;5006164;28;20060;-60
2022/12/30 02:53:33;;;;;;;51.45;24.33;;;;;;;0.66;100.00;97809.06;5005547;28;20093;-61
2022/12/30 02:56:00;;;;;;;49.88;24.63;;;;;;;0.79;100.00;97814.63;5005343;28;20054;-55
2022/12/30 02:58:29;;;;;;;59.40;28.02;;;;;;;0.53;100.00;97794.19;5005583;28;20527;-54
2022/12/30 03:04:27;;;;;;;51.17;24.50;;;;;;;0.63;100.00;97821.38;5005389;28;20061;-57
2022/12/30 03:07:28;;;;;;;48.13;20.58;;;;;;;0.59;100.00;97820.28;5005237;28;20049;-60
2022/12/30 03:13:23;;;;;;;37.88;17.63;;;;;;;0.59;100.00;97817.56;5005073;28;20194;-60
2022/12/30 03:16:02;;;;;;;36.25;17.75;;;;;;;0.61;100.00;97812.66;5003715;28;20061;-60
2022/12/30 03:18:30;;;;;;;42.78;18.88;;;;;;;0.53;100.00;97815.19;5005465;28;20042;-60
2022/12/30 03:20:57;;;;;;;37.53;19.17;;;;;;;0.71;100.00;97814.47;5003266;28;20085;-57
2022/12/30 03:29:01;;;;;;;41.90;18.67;;;;;;;0.67;100.00;97806.03;5005348;28;20081;-60
2022/12/30 03:31:27;;;;;;;42.92;20.42;;;;;;;0.83;100.00;97826.59;5016259;28;20081;-60
2022/12/30 03:33:54;;;;;;;52.00;21.13;;;;;;;0.66;100.00;97807.16;5023274;28;20739;-62
2022/12/30 03:36:28;;;;;;;51.22;22.48;;;;;;;0.92;100.00;97830.31;5024261;28;20049;-60
2022/12/30 03:39:10;;;;;;;47.67;20.48;;;;;;;0.51;100.00;97752.78;5023301;28;20174;-61
2022/12/30 03:41:37;;;;;;;43.13;19.13;;;;;;;0.90;100.00;97816.16;5024174;28;20092;-55
2022/12/30 03:44:04;;;;;;;43.90;18.75;;;;;;;1.03;100.00;97820.91;5024423;28;20057;-55
2022/12/30 03:46:33;;;;;;;44.65;17.63;;;;;;;0.84;100.00;97806.41;5023968;28;20088;-61
2022/12/30 03:49:00;;;;;;;40.70;19.33;;;;;;;1.02;100.00;97824.75;5024333;28;20089;-54
2022/12/30 03:51:27;;;;;;;37.58;17.10;;;;;;;0.71;100.00;97795.38;5023654;28;20138;-61
2022/12/30 03:53:54;;;;;;;36.72;17.58;;;;;;;0.71;100.00;97798.91;5023065;28;20111;-54
2022/12/30 03:56:20;;;;;;;38.50;18.35;;;;;;;0.88;100.00;97823.81;5024126;28;20487;-61
2022/12/30 03:58:47;;;;;;;37.20;17.55;;;;;;;0.86;100.00;97820.56;5022781;28;20049;-55
2022/12/30 04:01:13;;;;;;;43.78;18.58;;;;;;;0.91;100.00;97836.06;5024312;28;20076;-61
2022/12/30 04:03:40;;;;;;;53.00;22.45;;;;;;;0.80;100.00;97840.81;5024422;28;21379;-61
2022/12/30 04:06:07;;;;;;;52.67;22.98;;;;;;;0.52;100.00;97802.66;5024054;28;20049;-55
2022/12/30 04:08:34;;;;;;;74.47;31.50;;;;;;;0.12;100.00;97727.59;5024175;28;20500;-55
2022/12/30 04:11:00;;;;;;;52.63;24.90;;;;;;;0.76;100.00;97831.56;5024158;28;20061;-55
2022/12/30 04:13:27;;;;;;;48.63;22.55;;;;;;;0.77;100.00;97832.41;5023892;28;20103;-55
2022/12/30 04:15:54;;;;;;;45.97;20.75;;;;;;;0.81;100.00;97830.69;5022577;28;20083;-60
2022/12/30 04:18:20;;;;;;;40.80;19.00;;;;;;;0.58;100.00;97776.97;5023927;28;20099;-61
2022/12/30 04:20:48;;;;;;;37.38;17.27;;;;;;;0.87;100.00;97822.19;5022365;28;20049;-61
2022/12/30 04:23:15;;;;;;;42.35;20.92;;;;;;;0.87;100.00;97833.09;5024229;28;20644;-61
2022/12/30 04:25:41;;;;;;;50.47;22.35;;;;;;;0.90;100.00;97832.50;5024160;28;20159;-55
2022/12/30 04:28:08;;;;;;;53.90;25.00;;;;;;;0.38;100.00;97780.69;5022558;28;20049;-60
2022/12/30 04:30:35;;;;;;;57.83;23.80;;;;;;;0.84;100.00;97830.94;5018235;28;20077;-62
2022/12/30 04:33:02;;;;;;;85.22;33.55;;;;;;;0.92;100.00;97845.84;5002887;28;20093;-61
2022/12/30 04:35:29;;;;;;;60.20;25.77;;;;;;;0.94;100.00;97849.94;5003940;28;20088;-55
2022/12/30 04:37:55;;;;;;;65.75;28.20;;;;;;;0.86;100.00;97842.38;5004470;28;20053;-60
2022/12/30 04:40:22;;;;;;;59.33;26.45;;;;;;;0.80;100.00;97821.72;5004136;28;20108;-55
2022/12/30 04:42:49;;;;;;;50.70;23.30;;;;;;;0.94;100.00;97854.56;5003332;28;20070;-55
2022/12/30 04:45:15;;;;;;;42.42;20.90;;;;;;;0.95;100.00;97846.09;5004065;28;20053;-61
2022/12/30 04:47:42;;;;;;;53.25;24.98;;;;;;;0.95;100.00;97843.38;5004103;28;20575;-61
2022/12/30 04:50:10;;;;;;;42.78;18.65;;;;;;;0.72;100.00;97819.63;5004095;28;20081;-55
2022/12/30 04:52:37;;;;;;;41.75;18.27;;;;;;;0.61;100.00;97800.94;4998901;28;20066;-61
2022/12/30 04:55:04;;;;;;;48.17;19.25;;;;;;;0.93;100.00;97842.03;5004192;28;20054;-61
2022/12/30 04:57:31;;;;;;;46.75;19.35;;;;;;;0.98;100.00;97845.50;5005710;28;20606;-61
2022/12/30 04:59:58;;;;;;;43.55;18.50;;;;;;;1.01;100.00;97839.47;5006653;28;20078;-61
2022/12/30 05:02:24;;;;;;;48.60;19.65;;;;;;;1.09;100.00;97857.94;5007770;28;20746;-61
2022/12/30 05:04:51;;;;;;;53.45;23.23;;;;;;;0.75;100.00;97838.13;5007664;28;20544;-55
2022/12/30 05:07:18;;;;;;;50.03;21.35;;;;;;;0.70;100.00;97840.09;5007835;28;20058;-61
2022/12/30 05:09:44;;;;;;;39.08;19.17;;;;;;;0.86;100.00;97853.28;5007002;28;20604;-61
2022/12/30 05:12:11;;;;;;;55.05;23.40;;;;;;;0.76;100.00;97853.38;5006238;28;20513;-57
2022/12/30 05:14:38;;;;;;;58.65;24.23;;;;;;;0.31;100.00;97796.59;5007177;28;20054;-61
2022/12/30 05:17:04;;;;;;;51.05;23.70;;;;;;;0.69;100.00;97831.09;5007610;28;20077;-61
2022/12/30 05:19:31;;;;;;;66.93;24.67;;;;;;;0.87;100.00;97849.44;5007574;28;20069;-61
2022/12/30 05:21:57;;;;;;;69.53;25.92;;;;;;;0.78;100.00;97834.81;5006781;28;20054;-57
2022/12/30 05:27:09;;;;;;;63.97;27.27;;;;;;;0.93;100.00;97859.19;5007736;28;20090;-61
2022/12/30 05:29:36;;;;;;;85.35;37.85;;;;;;;0.89;100.00;97858.16;5007155;28;20050;-57
2022/12/30 05:32:03;;;;;;;81.47;35.30;;;;;;;0.23;100.00;97758.25;5022761;28;20107;-61
2022/12/30 05:34:29;;;;;;;95.90;38.72;;;;;;;0.65;100.00;97851.84;5026855;28;20519;-55
2022/12/30 05:36:56;;;;;;;90.10;38.10;;;;;;;0.25;100.00;97765.06;5026852;28;20084;-55
2022/12/30 05:39:22;;;;;;;71.25;31.55;;;;;;;0.79;100.00;97852.00;5026522;28;20049;-61
2022/12/30 05:41:49;;;;;;;73.70;31.58;;;;;;;0.53;100.00;97832.34;5026470;28;20551;-62
2022/12/30 05:44:16;;;;;;;68.38;31.15;;;;;;;0.60;100.00;97859.28;5026592;28;20057;-55
2022/12/30 05:46:42;;;;;;;67.57;31.67;;;;;;;0.41;100.00;97845.53;5026801;28;20430;-61
2022/12/30 05:49:10;;;;;;;67.07;32.58;;;;;;;0.67;100.00;97863.28;5026730;28;20053;-61
2022/12/30 05:51:37;;;;;;;42.33;19.17;;;;;;;0.25;100.00;97775.94;5025318;28;20085;-61
2022/12/30 05:54:04;;;;;;;89.15;36.35;;;;;;;0.67;100.00;97843.38;5026670;28;20057;-61
2022/12/30 05:56:30;;;;;;;97.28;40.42;;;;;;;0.70;100.00;97857.25;5026636;28;20049;-55
2022/12/30 05:58:57;;;;;;;96.75;39.58;;;;;;;0.67;100.00;97871.47;5026489;28;20075;-55
2022/12/30 06:01:23;;;;;;;81.70;36.10;;;;;;;0.62;100.00;97867.97;5024837;28;20057;-57
2022/12/30 06:03:53;;;;;;;72.55;32.65;;;;;;;0.58;100.00;97873.19;5026218;28;20076;-55
2022/12/30 06:06:21;;;;;;;78.55;34.95;;;;;;;0.65;100.00;97868.22;5024945;28;20137;-55
2022/12/30 06:08:47;;;;;;;63.70;29.10;;;;;;;0.37;100.00;97825.41;5024935;28;20132;-54
2022/12/30 06:11:14;;;;;;;66.00;30.38;;;;;;;0.75;99.69;97873.56;5024719;28;20111;-62
2022/12/30 06:13:40;;;;;;;75.97;31.95;;;;;;;0.73;100.00;97894.03;4823422;28;5000979;-56
2022/12/30 06:16:07;;;;;;;72.20;32.03;;;;;;;0.79;100.00;97885.53;5025581;28;20053;-60
2022/12/30 06:18:34;;;;;;;41.50;18.95;;;;;;;0.70;99.80;97892.69;5025602;28;20053;-55
2022/12/30 06:21:00;;;;;;;27.88;13.07;;;;;;;0.00;100.00;97891.34;5026130;28;20077;-56
2022/12/30 06:23:27;;;;;;;41.25;18.55;;;;;;;-0.09;100.00;97835.03;5026308;28;20099;-55
2022/12/30 06:25:56;;;;;;;115.82;48.75;;;;;;;-0.29;100.00;97775.28;5025550;28;20053;-55
2022/12/30 06:28:26;;;;;;;67.20;28.42;;;;;;;0.71;100.00;97901.69;5026356;28;20558;-63
2022/12/30 06:30:53;;;;;;;78.97;32.13;;;;;;;0.70;100.00;97887.25;5019805;28;20054;-63
2022/12/30 06:33:20;;;;;;;68.68;30.60;;;;;;;0.55;100.00;97840.25;5006103;28;20513;-62
2022/12/30 06:35:47;;;;;;;59.78;26.02;;;;;;;0.97;100.00;97909.34;5005625;28;20054;-61
2022/12/30 06:38:14;;;;;;;58.00;26.20;;;;;;;1.08;100.00;97905.44;5005799;28;20116;-54
2022/12/30 06:40:40;;;;;;;56.90;27.17;;;;;;;1.27;100.00;97887.22;5005262;28;20054;-55
2022/12/30 06:43:07;;;;;;;70.28;27.50;;;;;;;1.44;100.00;97903.94;5005678;28;20053;-61
2022/12/30 06:45:34;;;;;;;112.82;49.22;;;;;;;1.37;100.00;97865.28;5005924;28;20060;-61
2022/12/30 06:48:00;;;;;;;97.40;44.63;;;;;;;1.84;100.00;97907.25;5005885;28;20053;-61
2022/12/30 06:50:27;;;;;;;82.15;37.58;;;;;;;1.83;100.00;97883.78;5005489;28;20406;-55
2022/12/30 06:52:54;;;;;;;107.72;43.70;;;;;;;2.07;99.93;97906.41;5006420;28;20191;-61
2022/12/30 06:55:21;;;;;;;101.90;43.92;;;;;;;2.02;98.79;97882.72;5005455;28;20049;-63
2022/12/30 06:57:48;;;;;;;96.85;41.53;;;;;;;2.30;99.04;97900.03;5004972;28;20274;-62
2022/12/30 07:00:16;;;;;;;140.93;60.58;;;;;;;2.44;98.72;97898.19;5005245;28;20054;-63
2022/12/30 07:02:42;;;;;;;133.02;61.53;;;;;;;2.47;99.81;97881.19;5005732;28;20216;-63
2022/12/30 07:05:09;;;;;;;150.95;67.43;;;;;;;1.86;99.19;97773.94;5005700;28;20591;-57
2022/12/30 07:07:36;;;;;;;129.52;58.13;;;;;;;2.70;98.80;97872.06;5015587;28;20162;-64
2022/12/30 07:10:03;;;;;;;117.72;56.20;;;;;;;2.97;99.68;97889.34;5012659;28;20463;-61
2022/12/30 07:12:29;;;;;;;121.95;55.80;;;;;;;3.18;99.81;97889.78;5007128;28;20041;-61
2022/12/30 07:14:56;;;;;;;103.00;47.17;;;;;;;3.41;99.58;97888.00;5004550;28;20085;-60
2022/12/30 07:17:23;;;;;;;100.80;46.67;;;;;;;3.48;98.46;97894.69;5004625;28;20053;-59
2022/12/30 07:19:49;;;;;;;121.78;54.47;;;;;;;3.12;94.40;97860.88;5010378;28;20050;-56
2022/12/30 07:22:16;;;;;;;122.30;55.38;;;;;;;3.19;96.18;97896.91;5018772;28;20049;-56
2022/12/30 07:24:43;;;;;;;106.95;51.90;;;;;;;3.53;96.55;97891.84;5006891;28;20088;-57
2022/12/30 07:27:11;;;;;;;116.20;51.60;;;;;;;3.27;95.27;97855.16;5022291;28;20053;-55
2022/12/30 07:29:38;;;;;;;130.65;55.90;;;;;;;3.95;96.89;97899.72;5009940;28;20463;-55
2022/12/30 07:32:05;;;;;;;104.97;50.00;;;;;;;4.09;94.67;97889.56;5006199;28;20045;-56
2022/12/30 07:34:34;;;;;;;65.30;32.45;;;;;;;3.59;93.75;97890.63;5003837;28;20056;-59
2022/12/30 07:37:08;;;;;;;68.28;33.67;;;;;;;3.46;96.50;97890.63;5004586;28;20060;-62
2022/12/30 07:39:35;;;;;;;86.30;38.28;;;;;;;3.92;96.59;97900.34;5005032;28;20097;-56
2022/12/30 07:42:02;;;;;;;91.90;41.33;;;;;;;4.25;94.73;97899.06;5004286;28;20120;-61
2022/12/30 07:44:28;;;;;;;84.20;41.35;;;;;;;4.12;93.19;97864.28;4999161;28;20472;-59
2022/12/30 07:46:55;;;;;;;90.45;44.65;;;;;;;4.16;93.30;97818.66;5010623;28;20166;-57
2022/12/30 07:49:22;;;;;;;74.57;37.92;;;;;;;4.90;93.24;97906.84;5009082;28;20168;-63
2022/12/30 07:51:49;;;;;;;54.97;29.23;;;;;;;5.20;92.29;97895.09;5004368;28;20152;-61
2022/12/30 07:54:16;;;;;;;46.70;24.65;;;;;;;5.22;90.00;97877.16;5004210;28;20046;-58
2022/12/30 07:56:43;;;;;;;54.42;28.73;;;;;;;5.56;90.03;97902.06;5004452;28;20518;-58
2022/12/30 07:59:11;;;;;;;59.95;32.25;;;;;;;5.72;88.26;97916.19;5007186;28;20041;-61
2022/12/30 08:01:38;;;;;;;45.55;22.73;;;;;;;5.32;88.62;97873.31;5010884;28;20712;-55
2022/12/30 08:04:06;;;;;;;56.97;26.38;;;;;;;5.80;88.29;97907.16;5023440;28;20046;-59
2022/12/30 08:06:52;;;;;;;52.28;29.42;;;;;;;6.00;86.52;97903.84;5003896;28;20058;-61
2022/12/30 08:09:19;;;;;;;54.22;28.88;;;;;;;5.69;86.51;97834.38;5004194;28;20050;-56
2022/12/30 08:11:45;;;;;;;59.75;33.63;;;;;;;6.06;86.10;97844.81;5002566;28;20042;-59
2022/12/30 08:14:12;;;;;;;54.92;30.65;;;;;;;6.56;85.36;97902.97;5003171;28;20046;-58
2022/12/30 08:16:39;;;;;;;66.47;36.33;;;;;;;6.34;83.52;97845.31;5004234;28;20133;-55
2022/12/30 08:19:05;;;;;;;62.33;35.47;;;;;;;6.61;82.80;97865.06;5017236;28;20053;-57
2022/12/30 08:21:32;;;;;;;89.18;49.83;;;;;;;7.01;82.40;97899.53;5023393;28;20049;-55
2022/12/30 08:23:59;;;;;;;62.90;38.25;;;;;;;7.02;81.03;97900.31;5022075;28;20052;-55
2022/12/30 08:26:25;;;;;;;67.47;38.45;;;;;;;7.05;81.56;97878.44;5022948;28;20073;-59
2022/12/30 08:28:52;;;;;;;80.28;41.55;;;;;;;7.27;81.62;97886.50;5008961;28;20556;-57
2022/12/30 08:31:21;;;;;;;73.82;37.60;;;;;;;7.32;81.88;97872.53;5014387;28;20099;-55
2022/12/30 08:33:48;;;;;;;64.10;32.45;;;;;;;7.66;81.51;97882.63;5007762;28;20049;-66
2022/12/30 08:36:20;;;;;;;60.30;31.27;;;;;;;7.73;80.60;97886.50;5015239;28;20073;-59
2022/12/30 08:38:49;;;;;;;67.93;32.15;;;;;;;7.77;80.04;97883.06;5027870;28;20041;-59
2022/12/30 08:41:19;;;;;;;59.67;34.28;;;;;;;8.01;80.47;97888.78;5015249;28;20521;-58
2022/12/30 08:43:47;;;;;;;76.00;46.30;;;;;;;8.14;79.75;97885.00;5009981;28;20068;-58
2022/12/30 08:46:14;;;;;;;50.10;28.20;;;;;;;8.21;79.62;97893.53;5008860;28;20096;-57
2022/12/30 08:48:42;;;;;;;41.25;21.08;;;;;;;8.28;78.89;97864.31;5006227;28;20062;-59
2022/12/30 08:51:09;;;;;;;49.88;26.17;;;;;;;8.33;79.17;97890.91;5007718;28;20053;-62
2022/12/30 08:53:36;;;;;;;38.80;21.92;;;;;;;8.29;79.32;97854.06;5008751;28;20077;-58
2022/12/30 08:56:06;;;;;;;33.58;19.75;;;;;;;8.67;78.44;97879.59;5007165;28;20046;-56
2022/12/30 08:58:33;;;;;;;38.65;21.58;;;;;;;8.32;78.27;97796.25;5015538;28;20484;-55
2022/12/30 09:01:11;;;;;;;45.10;21.48;;;;;;;8.88;77.60;97863.81;5012044;28;20050;-55
2022/12/30 09:03:41;;;;;;;43.25;20.58;;;;;;;9.02;77.44;97875.38;5021239;28;20061;-57
2022/12/30 09:06:09;;;;;;;39.03;21.33;;;;;;;9.02;77.50;97831.16;5016654;28;20052;-69
2022/12/30 09:08:36;;;;;;;29.17;17.08;;;;;;;9.29;76.59;97863.72;5025479;28;20416;-67
2022/12/30 09:11:12;;;;;;;26.48;15.32;;;;;;;8.89;77.66;97843.31;5026971;28;20193;-62
2022/12/30 09:13:40;;;;;;;33.38;16.70;;;;;;;9.00;78.67;97869.38;5026835;28;20057;-62
2022/12/30 09:16:10;;;;;;;27.70;18.00;;;;;;;8.81;79.40;97836.75;5026373;28;20176;-59
2022/12/30 09:18:37;;;;;;;61.22;43.65;;;;;;;8.89;79.03;97788.06;5025516;28;20056;-60
2022/12/30 09:21:04;;;;;;;180.68;164.68;;;;;;;9.57;78.30;97853.63;5020699;28;20053;-57
2022/12/30 09:23:32;;;;;;;116.53;105.45;;;;;;;9.79;77.57;97850.41;5006432;28;20111;-63
2022/12/30 09:25:58;;;;;;;177.93;161.50;;;;;;;9.95;76.62;97848.56;5005503;28;20109;-60
2022/12/30 09:28:25;;;;;;;44.30;31.65;;;;;;;10.11;76.13;97844.00;5015636;28;20088;-60
2022/12/30 09:30:52;;;;;;;27.33;17.15;;;;;;;10.40;75.29;97842.91;5007620;28;20115;-58
2022/12/30 09:33:19;;;;;;;32.05;18.00;;;;;;;10.65;73.80;97839.69;5018015;28;20084;-64
2022/12/30 09:35:45;;;;;;;34.78;21.75;;;;;;;10.76;74.56;97839.22;5006237;28;20060;-56
2022/12/30 09:38:12;;;;;;;28.45;18.27;;;;;;;10.96;74.32;97824.34;5006617;28;20089;-60
2022/12/30 09:40:57;;;;;;;35.03;20.90;;;;;;;11.08;72.58;97818.75;5011438;28;20328;-56
2022/12/30 09:43:34;;;;;;;31.08;19.48;;;;;;;11.23;71.33;97815.19;5008582;28;20089;-57
2022/12/30 09:46:31;;;;;;;29.77;17.35;;;;;;;11.35;70.99;97812.34;5005851;28;20050;-61
2022/12/30 09:49:01;;;;;;;26.05;15.20;;;;;;;11.59;69.41;97817.72;5013892;28;20041;-55
2022/12/30 09:51:41;;;;;;;30.40;17.90;;;;;;;11.43;69.96;97765.00;5022005;28;20052;-57
2022/12/30 09:54:16;;;;;;;35.03;20.92;;;;;;;11.84;70.17;97808.06;5008094;28;20081;-60
2022/12/30 09:56:46;;;;;;;33.75;21.02;;;;;;;12.03;70.06;97805.34;5008596;28;20105;-61
2022/12/30 09:59:19;;;;;;;32.85;21.55;;;;;;;12.15;69.61;97808.03;5022600;28;20594;-55
2022/12/30 10:02:16;;;;;;;37.72;21.23;;;;;;;12.29;68.61;97791.69;5017263;28;20140;-55
2022/12/30 10:04:43;;;;;;;38.03;25.58;;;;;;;12.23;67.94;97798.69;5022908;28;20049;-57
2022/12/30 10:07:22;;;;;;;41.72;26.10;;;;;;;12.49;68.33;97784.19;5022633;28;20080;-57
2022/12/30 10:10:02;;;;;;;32.00;22.52;;;;;;;12.41;67.62;97737.97;5026311;28;20069;-56
2022/12/30 10:13:06;;;;;;;30.42;20.58;;;;;;;12.81;66.56;97782.84;5024321;28;20073;-58
2022/12/30 10:15:49;;;;;;;27.83;17.48;;;;;;;12.76;66.29;97756.16;5023916;28;20096;-58
2022/12/30 10:18:23;;;;;;;22.23;14.95;;;;;;;13.08;64.14;97768.72;5024125;28;20127;-59
2022/12/30 10:20:53;;;;;;;26.02;15.75;;;;;;;13.15;63.96;97768.84;5008636;28;20058;-55
2022/12/30 10:23:28;;;;;;;25.75;15.45;;;;;;;13.23;65.00;97765.03;5009174;28;20057;-56
2022/12/30 10:26:31;;;;;;;24.15;15.18;;;;;;;13.24;64.21;97755.53;5025231;28;20486;-55
2022/12/30 10:29:04;;;;;;;25.58;16.10;;;;;;;13.32;64.36;97762.81;5023896;28;20103;-70
2022/12/30 10:31:36;;;;;;;28.58;17.88;;;;;;;13.42;64.03;97751.06;5025589;28;20451;-68
2022/12/30 10:34:30;;;;;;;31.02;19.35;;;;;;;13.47;64.04;97756.31;5020690;28;20537;-68
2022/12/30 10:36:56;;;;;;;;;;;;;;;13.61;63.31;97759.34;5025955;28;20139;-68
2022/12/30 10:39:28;;;;;;;31.60;19.70;;;;;;;13.71;63.41;97746.75;5025189;28;20388;-69
2022/12/30 10:42:07;;;;;;;27.38;16.17;;;;;;;13.92;61.82;97752.69;5024771;28;20100;-67
2022/12/30 10:44:56;;;;;;;25.05;16.10;;;;;;;13.90;61.87;97748.63;5023549;28;20054;-59
2022/12/30 10:47:40;;;;;;;30.00;18.90;;;;;;;13.84;62.09;97741.78;5023699;28;20049;-54
2022/12/30 10:50:34;;;;;;;27.70;17.58;;;;;;;14.14;61.66;97743.44;5006776;28;20096;-54
2022/12/30 10:53:02;;;;;;;;;;;;;;;14.26;60.97;97739.66;5010540;28;20061;-59
2022/12/30 10:55:32;;;;;;;29.23;17.95;;;;;;;14.24;60.70;97739.22;5006048;28;19932;-63
2022/12/30 10:58:03;;;;;;;23.00;15.57;;;;;;;14.16;61.17;97741.09;5016573;28;20143;-53
2022/12/30 11:00:32;;;;;;;27.85;18.05;;;;;;;13.64;61.39;97672.28;5012042;28;20057;-70
2022/12/30 11:03:14;;;;;;;28.67;18.83;;;;;;;14.30;60.55;97723.78;5016136;28;20050;-61
2022/12/30 11:05:40;;;;;;;21.85;14.35;;;;;;;13.83;60.86;97721.47;5016363;28;20055;-59
2022/12/30 11:08:21;;;;;;;25.48;17.20;;;;;;;13.67;62.22;97718.84;5018755;28;20081;-54
2022/12/30 11:11:03;;;;;;;27.00;17.63;;;;;;;13.76;61.97;97699.13;5015409;28;20049;-68
